Cooper Moran — WDI9156 — position and weather

sailwx.info

Track history (hours):
 
Tides and Currents Weather Stations Pressure Air Temp Water Temp Dewpoint Dewpoint Depression Visibility Wind Speed Wind Dir Waves Ship Positions

Cooper Moran

Owner: MORAN TOWING CORPORATION, NORFOLK, VA. More information available from US FCC via Universal Licensing System and Coast Guard Vessel Documentation Center.

Last reported at 2017-Nov-24 20:30 UTC. Time now 2017-Nov-24 20:41 UTC.
Position N 32°05' W 081°04'.

Length 28 m; draft 5.2 m.

Type: Tug. MMSI: 367745820.

Date/timePositionNaut miles runAvg speedWind from/ knotsBaromVisibWave heightAir tempDewpointWater temp
2017-Nov-24 20:30N 32°05' W 081°04'0 0.0
2017-Nov-24 20:00N 32°05' W 081°04'0 0.0
2017-Nov-24 19:30N 32°05' W 081°04'0 0.0
2017-Nov-24 19:00N 32°05' W 081°04'3 5.7
2017-Nov-24 18:30N 32°06' W 081°07'2 4.7
2017-Nov-24 18:00N 32°08' W 081°09'0 0.6
2017-Nov-24 17:30N 32°08' W 081°08'2 4.2
2017-Nov-24 17:00N 32°06' W 081°07'3 5.3
2017-Nov-24 16:30N 32°05' W 081°04'3 6.6
2017-Nov-24 16:00N 32°06' W 081°01'2 4.8
2017-Nov-24 15:30N 32°05' W 081°03'1 1.4
2017-Nov-24 15:00N 32°05' W 081°04'0 0.2
2017-Nov-24 14:30N 32°05' W 081°04'1 1.3
2017-Nov-24 14:00N 32°05' W 081°03'0 0.0
2017-Nov-24 13:30N 32°05' W 081°03'2 3.9
2017-Nov-24 13:00N 32°06' W 081°01'3 5.3
2017-Nov-24 12:31N 32°05' W 081°04'0 0.4
2017-Nov-24 12:00N 32°05' W 081°04'0 0.0
2017-Nov-24 11:30N 32°05' W 081°04'0 0.0
2017-Nov-24 11:00N 32°05' W 081°04'0 0.0
2017-Nov-24 10:30N 32°05' W 081°04'0 0.0
2017-Nov-24 10:00N 32°05' W 081°04'0 0.0
2017-Nov-24 09:30N 32°05' W 081°04'0 0.0
2017-Nov-24 09:00N 32°05' W 081°04'0 0.0
2017-Nov-24 08:30N 32°05' W 081°04'0 0.0
2017-Nov-24 08:00N 32°05' W 081°04'0 0.0
2017-Nov-24 07:30N 32°05' W 081°04'0 0.0
2017-Nov-24 07:00N 32°05' W 081°04'0 0.0
2017-Nov-24 06:30N 32°05' W 081°04'0 0.0
2017-Nov-24 06:00N 32°05' W 081°04'0 0.0
2017-Nov-24 05:30N 32°05' W 081°04'0 0.0
2017-Nov-24 05:00N 32°05' W 081°04'0 0.0
2017-Nov-24 04:30N 32°05' W 081°04'0 0.0
2017-Nov-24 04:00N 32°05' W 081°04'1 2.9
2017-Nov-24 03:30N 32°05' W 081°06'0 0.7
2017-Nov-24 03:00N 32°05' W 081°06'0 0.0
2017-Nov-24 02:30N 32°05' W 081°06'0 0.0
2017-Nov-24 02:00N 32°05' W 081°06'0 0.0
2017-Nov-24 01:30N 32°05' W 081°06'0 0.0
2017-Nov-24 01:00N 32°05' W 081°06'2 4.3
2017-Nov-24 00:30N 32°07' W 081°08'1 1.5
2017-Nov-24 00:00N 32°07' W 081°08'1 2.3
2017-Nov-23 23:30N 32°07' W 081°07'3 6.7
2017-Nov-23 23:00N 32°05' W 081°04'0 0.0
2017-Nov-23 22:30N 32°05' W 081°04'0 0.0
2017-Nov-23 22:00N 32°05' W 081°04'0 0.0
2017-Nov-23 21:30N 32°05' W 081°04'0 0.0
2017-Nov-23 21:00N 32°05' W 081°04'0 0.0
2017-Nov-23 20:30N 32°05' W 081°04'0 0.0
2017-Nov-23 20:00N 32°05' W 081°04'0 0.0
2017-Nov-23 19:30N 32°05' W 081°04'0 0.0
2017-Nov-23 19:00N 32°05' W 081°04'0 0.0
2017-Nov-23 18:30N 32°05' W 081°04'0 0.0
2017-Nov-23 18:00N 32°05' W 081°04'0 0.0
2017-Nov-23 17:30N 32°05' W 081°04'0 0.0
2017-Nov-23 17:00N 32°05' W 081°04'0 0.0
2017-Nov-23 16:30N 32°05' W 081°04'0 0.0
2017-Nov-23 16:00N 32°05' W 081°04'0 0.0
2017-Nov-23 15:30N 32°05' W 081°04'0 0.0
2017-Nov-23 15:00N 32°05' W 081°04'0 0.0
2017-Nov-23 14:30N 32°05' W 081°04'0 0.0
2017-Nov-23 14:00N 32°05' W 081°04'0 0.0
2017-Nov-23 13:30N 32°05' W 081°04'0 0.0
2017-Nov-23 13:00N 32°05' W 081°04'0 0.0
2017-Nov-23 12:30N 32°05' W 081°04'0 0.1
2017-Nov-23 12:00N 32°05' W 081°04'4 7.1
2017-Nov-23 11:30N 32°07' W 081°07'2 3.4
2017-Nov-23 11:00N 32°08' W 081°09'0 0.2
2017-Nov-23 10:30N 32°08' W 081°08'1 2.3
2017-Nov-23 10:00N 32°07' W 081°08'2 4.7
2017-Nov-23 09:30N 32°05' W 081°06'2 3.7
2017-Nov-23 09:00N 32°05' W 081°04'0 0.0
2017-Nov-23 08:29N 32°05' W 081°04'0 0.0
2017-Nov-23 07:59N 32°05' W 081°04'0 0.0
2017-Nov-23 07:30N 32°05' W 081°04'0 0.0
2017-Nov-23 07:00N 32°05' W 081°04'0 0.0
2017-Nov-23 06:30N 32°05' W 081°04'0 0.0
2017-Nov-23 06:00N 32°05' W 081°04'0 0.0
2017-Nov-23 05:30N 32°05' W 081°04'0 0.0
2017-Nov-23 05:00N 32°05' W 081°04'0 0.0
2017-Nov-23 04:30N 32°05' W 081°04'0 0.0
2017-Nov-23 04:00N 32°05' W 081°04'0 0.0
2017-Nov-23 03:30N 32°05' W 081°04'0 0.0
2017-Nov-23 03:00N 32°05' W 081°04'0 0.0
2017-Nov-23 02:30N 32°05' W 081°04'0 0.0
2017-Nov-23 02:00N 32°05' W 081°04'1 1.3
2017-Nov-23 01:30N 32°05' W 081°05'4 7.1
2017-Nov-23 01:00N 32°07' W 081°08'1 1.9
2017-Nov-23 00:30N 32°08' W 081°08'0 0.9
2017-Nov-23 00:00N 32°08' W 081°09'0 0.0
2017-Nov-22 23:30N 32°08' W 081°09'0 0.7
2017-Nov-22 23:00N 32°08' W 081°08'0 0.3
2017-Nov-22 22:30N 32°08' W 081°08'0 0.0
2017-Nov-22 22:00N 32°08' W 081°08'0 0.1
2017-Nov-22 21:30N 32°08' W 081°08'0 0.2
2017-Nov-22 21:00N 32°08' W 081°08'2 3.9
2017-Nov-22 20:30N 32°06' W 081°07'2 4.8
2017-Nov-22 20:00N 32°05' W 081°05'3 6.2
2017-Nov-22 19:30N 32°06' W 081°01'  
2017-Nov-20 00:30N 32°08' W 081°09'1 1.7
2017-Nov-20 00:00N 32°07' W 081°08'3 5.3
2017-Nov-19 23:31N 32°05' W 081°06'3 5.9
2017-Nov-19 23:00N 32°05' W 081°03'3 6.1
2017-Nov-19 22:30N 32°05' W 080°59'1 2.2
2017-Nov-19 22:01N 32°06' W 080°60'4 7.7
2017-Nov-19 21:31N 32°05' W 081°04'0 0.3
2017-Nov-19 21:00N 32°05' W 081°04'0 0.0
2017-Nov-19 20:30N 32°05' W 081°04'0 0.0
2017-Nov-19 20:01N 32°05' W 081°04'0 0.0
2017-Nov-19 19:30N 32°05' W 081°04'0 0.0
2017-Nov-19 19:00N 32°05' W 081°04'0 0.0
2017-Nov-19 18:31N 32°05' W 081°04'0 0.0
2017-Nov-19 18:00N 32°05' W 081°04'0 0.0
2017-Nov-19 17:30N 32°05' W 081°04'0 0.0
2017-Nov-19 17:01N 32°05' W 081°04'3 6.4
2017-Nov-19 16:30N 32°06' W 081°07'1 2.5
2017-Nov-19 16:00N 32°07' W 081°08'0 0.2
2017-Nov-19 15:31N 32°08' W 081°08'3 5.2
2017-Nov-19 15:01N 32°05' W 081°06'0 0.0
2017-Nov-19 14:30N 32°05' W 081°06'0 0.0
2017-Nov-19 14:01N 32°05' W 081°06'0 0.7
2017-Nov-19 13:31N 32°06' W 081°06'2 4.8
2017-Nov-19 13:00N 32°08' W 081°08'0 0.0
2017-Nov-19 12:31N 32°08' W 081°08'3 6.1
2017-Nov-19 12:01N 32°05' W 081°06'0 0.9
2017-Nov-19 11:31N 32°06' W 081°06'1 2.1
2017-Nov-19 11:00N 32°06' W 081°07'3 6.2
2017-Nov-19 10:30N 32°05' W 081°04'0 0.0
2017-Nov-19 10:01N 32°05' W 081°04'0 0.0
2017-Nov-19 09:31N 32°05' W 081°04'0 0.0
2017-Nov-19 09:01N 32°05' W 081°04'0 0.0
2017-Nov-19 08:30N 32°05' W 081°04'0 0.0
2017-Nov-19 08:00N 32°05' W 081°04'0 0.0
2017-Nov-19 07:31N 32°05' W 081°04'0 0.0
2017-Nov-19 07:00N 32°05' W 081°04'0 0.0
2017-Nov-19 06:30N 32°05' W 081°04'0 0.0
2017-Nov-19 06:01N 32°05' W 081°04'0 0.0
2017-Nov-19 05:31N 32°05' W 081°04'0 0.0
2017-Nov-19 05:01N 32°05' W 081°04'0 0.0
2017-Nov-19 04:30N 32°05' W 081°04'0 0.0
2017-Nov-19 04:00N 32°05' W 081°04'0 0.0
2017-Nov-19 03:31N 32°05' W 081°04'0 0.0
2017-Nov-19 03:00N 32°05' W 081°04'0 0.0
2017-Nov-19 02:31N 32°05' W 081°04'4 7.9
2017-Nov-19 02:01N 32°07' W 081°08'1 1.4
2017-Nov-19 01:31N 32°08' W 081°08'1 1.6
2017-Nov-19 01:00N 32°07' W 081°08'2 4.5
2017-Nov-19 00:31N 32°05' W 081°06'3 6.1
2017-Nov-19 00:00N 32°05' W 081°02'5 9.3
2017-Nov-18 23:31N 32°07' W 081°07'1 2.3
2017-Nov-18 23:00N 32°08' W 081°08'0 0.0
2017-Nov-18 22:30N 32°08' W 081°08'0 0.0
2017-Nov-18 22:00N 32°08' W 081°08'0 0.8
2017-Nov-18 21:31N 32°07' W 081°08'0 0.1
2017-Nov-18 21:00N 32°07' W 081°08'1 2.2
2017-Nov-18 20:30N 32°06' W 081°07'1 1.7
2017-Nov-18 20:00N 32°07' W 081°08'4 7.4
2017-Nov-18 19:31N 32°05' W 081°05'1 1.2
2017-Nov-18 19:01N 32°05' W 081°04'0 0.0
2017-Nov-18 18:31N 32°05' W 081°04'0 0.0
2017-Nov-18 18:00N 32°05' W 081°04'0 0.0
2017-Nov-18 17:30N 32°05' W 081°04'0 0.0
2017-Nov-18 17:00N 32°05' W 081°04'0 0.0
2017-Nov-18 16:31N 32°05' W 081°04'0 0.2
2017-Nov-18 16:00N 32°05' W 081°04'3 5.1
2017-Nov-18 15:30N 32°06' W 081°07'2 4.4
2017-Nov-18 15:01N 32°08' W 081°08'3 6.2
2017-Nov-18 14:30N 32°05' W 081°06'2 4.5
2017-Nov-18 14:00N 32°05' W 081°03'3 5.9
2017-Nov-18 13:30N 32°06' W 081°06'2 4.8
2017-Nov-18 13:01N 32°08' W 081°08'0 0.9
2017-Nov-18 12:30N 32°08' W 081°09'3 6.6
2017-Nov-18 12:00N 32°05' W 081°06'3 5.6
2017-Nov-18 11:30N 32°08' W 081°08'0 0.1
2017-Nov-18 11:00N 32°08' W 081°08'0 0.6
2017-Nov-18 10:30N 32°08' W 081°08'1 1.9
2017-Nov-18 10:00N 32°07' W 081°08'2 3.7
2017-Nov-18 09:30N 32°06' W 081°06'0 0.0
2017-Nov-18 09:00N 32°06' W 081°06'2 3.5
2017-Nov-18 08:30N 32°07' W 081°08'0 1.0
2017-Nov-18 08:00N 32°07' W 081°08'0 0.0
2017-Nov-18 07:30N 32°07' W 081°08'0 0.5
2017-Nov-18 07:00N 32°08' W 081°08'0 0.8
2017-Nov-18 06:30N 32°07' W 081°08'1 1.0
2017-Nov-18 06:00N 32°08' W 081°08'1 1.9
2017-Nov-18 05:30N 32°07' W 081°08'2 3.6
2017-Nov-18 05:00N 32°05' W 081°06'0 0.0
2017-Nov-18 04:30N 32°05' W 081°06'0 0.0
2017-Nov-18 04:00N 32°05' W 081°06'0 0.0
2017-Nov-18 03:30N 32°05' W 081°06'0 0.1
2017-Nov-18 03:00N 32°06' W 081°06'1 2.9
2017-Nov-18 02:30N 32°07' W 081°07'2 3.8
2017-Nov-18 02:00N 32°05' W 081°06'3 6.5
2017-Nov-18 01:30N 32°08' W 081°08'1 1.9
2017-Nov-18 01:00N 32°07' W 081°08'510.1
2017-Nov-18 00:30N 32°05' W 081°02'2 4.6
2017-Nov-18 00:00N 32°05' W 080°59'0 0.0
2017-Nov-17 23:30N 32°05' W 080°59'1 1.7
2017-Nov-17 23:00N 32°04' W 080°59'0 0.1
2017-Nov-17 22:30N 32°05' W 080°59'3 5.9
2017-Nov-17 22:00N 32°05' W 081°02'2 3.0
2017-Nov-17 21:30N 32°05' W 081°04'0 0.0
2017-Nov-17 21:00N 32°05' W 081°04'0 0.0
2017-Nov-17 20:30N 32°05' W 081°04'0 0.0
2017-Nov-17 20:00N 32°05' W 081°04'0 0.0
2017-Nov-17 19:30N 32°05' W 081°04'0 0.0
2017-Nov-17 19:00N 32°05' W 081°04'2 4.1
2017-Nov-17 18:30N 32°05' W 081°06'3 5.5
2017-Nov-17 18:00N 32°08' W 081°08'0 0.7
2017-Nov-17 17:31N 32°08' W 081°08'1 2.8
2017-Nov-17 17:00N 32°07' W 081°07'2 3.8
2017-Nov-17 16:30N 32°05' W 081°06'3 5.3
2017-Nov-17 16:00N 32°07' W 081°08'1 2.4
2017-Nov-17 15:30N 32°06' W 081°07'3 6.1
2017-Nov-17 15:01N 32°05' W 081°04'0 0.4
2017-Nov-17 14:30N 32°05' W 081°04'0 0.0
2017-Nov-17 13:59N 32°05' W 081°04'0 0.0
2017-Nov-17 13:30N 32°05' W 081°04'0 0.0
2017-Nov-17 13:00N 32°05' W 081°04'0 0.0
2017-Nov-17 12:30N 32°05' W 081°04'0 0.0
2017-Nov-17 12:00N 32°05' W 081°04'0 0.0
2017-Nov-17 11:30N 32°05' W 081°04'0 0.0
2017-Nov-17 11:00N 32°05' W 081°04'0 0.0
2017-Nov-17 10:30N 32°05' W 081°04'0 0.0
2017-Nov-17 10:00N 32°05' W 081°04'0 0.0
2017-Nov-17 09:30N 32°05' W 081°04'0 0.0
2017-Nov-17 09:00N 32°05' W 081°04'0 0.0
2017-Nov-17 08:30N 32°05' W 081°04'0 0.0
2017-Nov-17 07:59N 32°05' W 081°04'0 0.0
2017-Nov-17 07:30N 32°05' W 081°04'2 3.1
2017-Nov-17 07:00N 32°05' W 081°06'4 7.9
2017-Nov-17 06:30N 32°08' W 081°09'0 0.6
2017-Nov-17 06:00N 32°08' W 081°08'2 3.7
2017-Nov-17 05:30N 32°06' W 081°07'2 4.5
2017-Nov-17 05:00N 32°05' W 081°05'2 4.3
2017-Nov-17 04:30N 32°05' W 081°02'3 5.9
2017-Nov-17 04:00N 32°05' W 080°59'2 4.0
2017-Nov-17 03:30N 32°06' W 081°01'3 5.3
2017-Nov-17 03:00N 32°05' W 081°04'1 1.1
2017-Nov-17 02:31N 32°05' W 081°04'5 8.9
2017-Nov-17 02:00N 32°08' W 081°08'0 0.5
2017-Nov-17 01:30N 32°08' W 081°09'2 4.6
2017-Nov-17 01:00N 32°06' W 081°07'0 0.1
2017-Nov-17 00:31N 32°06' W 081°07'1 2.7
2017-Nov-17 00:00N 32°05' W 081°06'4 7.1
2017-Nov-16 23:30N 32°08' W 081°08'0 0.4
2017-Nov-16 23:00N 32°08' W 081°09'0 0.4
2017-Nov-16 22:31N 32°08' W 081°08'2 4.3
2017-Nov-16 22:00N 32°06' W 081°07'3 5.6
2017-Nov-16 21:30N 32°05' W 081°04'4 7.2
2017-Nov-16 21:00N 32°06' W 081°00'2 3.6
2017-Nov-16 20:30N 32°05' W 080°59'0 0.0
2017-Nov-16 20:00N 32°05' W 080°59'4 6.9
2017-Nov-16 19:29N 32°05' W 081°03'1 1.4
2017-Nov-16 19:00N 32°05' W 081°04'0 0.0
2017-Nov-16 18:30N 32°05' W 081°04'0 0.0
2017-Nov-16 18:00N 32°05' W 081°04'0 0.0
2017-Nov-16 17:30N 32°05' W 081°04'0 0.0
2017-Nov-16 17:00N 32°05' W 081°04'0 0.0
2017-Nov-16 16:30N 32°05' W 081°04'0 0.0
2017-Nov-16 16:00N 32°05' W 081°04'0 0.0
2017-Nov-16 15:30N 32°05' W 081°04'0 0.0
2017-Nov-16 15:00N 32°05' W 081°04'0 0.0
2017-Nov-16 14:30N 32°05' W 081°04'0 0.0
2017-Nov-16 14:00N 32°05' W 081°04'0 0.0
2017-Nov-16 13:30N 32°05' W 081°04'0 0.0
2017-Nov-16 13:00N 32°05' W 081°04'0 0.0
2017-Nov-16 12:30N 32°05' W 081°04'0 0.0
2017-Nov-16 12:00N 32°05' W 081°04'0 0.0
2017-Nov-16 11:30N 32°05' W 081°04'4 7.5
2017-Nov-16 11:00N 32°07' W 081°08'1 2.6
2017-Nov-16 10:30N 32°08' W 081°08'1 2.9
2017-Nov-16 10:00N 32°07' W 081°07'1 1.8
2017-Nov-16 09:30N 32°07' W 081°08'0 0.0
2017-Nov-16 09:00N 32°07' W 081°08'1 1.9
2017-Nov-16 08:30N 32°08' W 081°09'1 1.5
2017-Nov-16 08:00N 32°08' W 081°08'3 5.2
2017-Nov-16 07:30N 32°05' W 081°06'0 0.0
2017-Nov-16 07:00N 32°05' W 081°06'0 0.0
2017-Nov-16 06:30N 32°05' W 081°06'0 0.0
2017-Nov-16 06:00N 32°05' W 081°06'0 0.4
2017-Nov-16 05:30N 32°06' W 081°06'0 0.0
2017-Nov-16 05:00N 32°06' W 081°06'2 4.0
2017-Nov-16 04:30N 32°05' W 081°04'0 0.8
2017-Nov-16 04:00N 32°05' W 081°04'0 0.0
2017-Nov-16 03:30N 32°05' W 081°04'0 0.0
2017-Nov-16 03:00N 32°05' W 081°04'0 0.0
2017-Nov-16 02:30N 32°05' W 081°04'0 0.0
2017-Nov-16 02:00N 32°05' W 081°04'0 0.0
2017-Nov-16 01:30N 32°05' W 081°04'0 0.0
2017-Nov-16 01:00N 32°05' W 081°04'0 0.0
2017-Nov-16 00:30N 32°05' W 081°04'3 6.2
2017-Nov-16 00:00N 32°06' W 081°07'1 2.9
2017-Nov-15 23:30N 32°07' W 081°08'0 0.3
2017-Nov-15 23:00N 32°08' W 081°08'0 0.6
2017-Nov-15 22:30N 32°08' W 081°08'0 0.1
2017-Nov-15 22:00N 32°08' W 081°08'0 0.9
2017-Nov-15 21:30N 32°07' W 081°08'3 5.4
2017-Nov-15 21:00N 32°05' W 081°06'3 5.2
2017-Nov-15 20:30N 32°05' W 081°03'3 6.0
2017-Nov-15 20:00N 32°06' W 081°06'2 4.0
2017-Nov-15 19:30N 32°07' W 081°08'0 0.0
2017-Nov-15 19:00N 32°07' W 081°08'0 0.0
2017-Nov-15 18:30N 32°07' W 081°08'0 0.0
2017-Nov-15 18:00N 32°07' W 081°08'0 0.0
2017-Nov-15 17:30N 32°07' W 081°08'1 2.4
2017-Nov-15 17:00N 32°08' W 081°09'0 0.3
2017-Nov-15 16:30N 32°08' W 081°08'1 1.3
2017-Nov-15 16:00N 32°08' W 081°08'2 4.7
2017-Nov-15 15:30N 32°06' W 081°06'0 0.5
2017-Nov-15 15:00N 32°05' W 081°06'0 0.0
2017-Nov-15 14:30N 32°05' W 081°06'0 0.0
2017-Nov-15 14:00N 32°05' W 081°06'0 0.0
2017-Nov-15 13:30N 32°05' W 081°06'0 0.0
2017-Nov-15 13:00N 32°05' W 081°06'0 0.0
2017-Nov-15 12:30N 32°05' W 081°06'0 0.0
2017-Nov-15 12:00N 32°05' W 081°06'0 0.0
2017-Nov-15 11:30N 32°05' W 081°06'0 0.0
2017-Nov-15 11:00N 32°05' W 081°06'0 0.0
2017-Nov-15 10:30N 32°05' W 081°06'0 0.0
2017-Nov-15 10:00N 32°05' W 081°06'0 0.0
2017-Nov-15 09:30N 32°05' W 081°06'0 0.0
2017-Nov-15 09:00N 32°05' W 081°06'0 0.0
2017-Nov-15 08:30N 32°05' W 081°06'0 0.0
2017-Nov-15 08:00N 32°05' W 081°06'3 6.0
2017-Nov-15 07:31N 32°08' W 081°08'1 2.0
2017-Nov-15 07:00N 32°07' W 081°08'1 2.8
2017-Nov-15 06:30N 32°08' W 081°09'0 0.3
2017-Nov-15 06:00N 32°08' W 081°08'1 1.8
2017-Nov-15 05:30N 32°07' W 081°08'0 0.4
2017-Nov-15 05:00N 32°07' W 081°08'0 0.0
2017-Nov-15 04:30N 32°07' W 081°08'0 0.0
2017-Nov-15 04:00N 32°07' W 081°08'0 0.0
2017-Nov-15 03:30N 32°07' W 081°08'0 0.0
2017-Nov-15 03:00N 32°07' W 081°08'0 0.0
2017-Nov-15 02:30N 32°07' W 081°08'0 0.9
2017-Nov-15 02:00N 32°07' W 081°08'1 2.0
2017-Nov-15 01:30N 32°07' W 081°07'3 6.7
2017-Nov-15 01:00N 32°05' W 081°04'0 0.6
2017-Nov-15 00:30N 32°05' W 081°04'0 0.0
2017-Nov-15 00:00N 32°05' W 081°04'0 0.0
2017-Nov-14 23:30N 32°05' W 081°04'0 0.0
2017-Nov-14 23:00N 32°05' W 081°04'0 0.0
2017-Nov-14 22:30N 32°05' W 081°04'0 0.0
2017-Nov-14 22:00N 32°05' W 081°04'0 0.0
2017-Nov-14 21:30N 32°05' W 081°04'0 0.0
2017-Nov-14 21:00N 32°05' W 081°04'  
Track history (hours):
 
Tides and Currents Weather Stations Pressure Air Temp Water Temp Dewpoint Dewpoint Depression Visibility Wind Speed Wind Dir Waves Ship Positions

Cooper Moran

Owner: MORAN TOWING CORPORATION, NORFOLK, VA. More information available from US FCC via Universal Licensing System and Coast Guard Vessel Documentation Center.

Last reported at 2017-Nov-24 20:30 UTC. Time now 2017-Nov-24 20:41 UTC.
Position N 32°05' W 081°04'.

Length 28 m; draft 5.2 m.

Type: Tug. MMSI: 367745820.

Date/timePositionNaut miles runAvg speedWind from/ knotsBaromVisibWave heightAir tempDewpointWater temp
2017-Nov-24 20:30N 32°05' W 081°04'0 0.0
2017-Nov-24 20:00N 32°05' W 081°04'0 0.0
2017-Nov-24 19:30N 32°05' W 081°04'0 0.0
2017-Nov-24 19:00N 32°05' W 081°04'3 5.7
2017-Nov-24 18:30N 32°06' W 081°07'2 4.7
2017-Nov-24 18:00N 32°08' W 081°09'0 0.6
2017-Nov-24 17:30N 32°08' W 081°08'2 4.2
2017-Nov-24 17:00N 32°06' W 081°07'3 5.3
2017-Nov-24 16:30N 32°05' W 081°04'3 6.6
2017-Nov-24 16:00N 32°06' W 081°01'2 4.8
2017-Nov-24 15:30N 32°05' W 081°03'1 1.4
2017-Nov-24 15:00N 32°05' W 081°04'0 0.2
2017-Nov-24 14:30N 32°05' W 081°04'1 1.3
2017-Nov-24 14:00N 32°05' W 081°03'0 0.0
2017-Nov-24 13:30N 32°05' W 081°03'2 3.9
2017-Nov-24 13:00N 32°06' W 081°01'3 5.3
2017-Nov-24 12:31N 32°05' W 081°04'0 0.4
2017-Nov-24 12:00N 32°05' W 081°04'0 0.0
2017-Nov-24 11:30N 32°05' W 081°04'0 0.0
2017-Nov-24 11:00N 32°05' W 081°04'0 0.0
2017-Nov-24 10:30N 32°05' W 081°04'0 0.0
2017-Nov-24 10:00N 32°05' W 081°04'0 0.0
2017-Nov-24 09:30N 32°05' W 081°04'0 0.0
2017-Nov-24 09:00N 32°05' W 081°04'0 0.0
2017-Nov-24 08:30N 32°05' W 081°04'0 0.0
2017-Nov-24 08:00N 32°05' W 081°04'0 0.0
2017-Nov-24 07:30N 32°05' W 081°04'0 0.0
2017-Nov-24 07:00N 32°05' W 081°04'0 0.0
2017-Nov-24 06:30N 32°05' W 081°04'0 0.0
2017-Nov-24 06:00N 32°05' W 081°04'0 0.0
2017-Nov-24 05:30N 32°05' W 081°04'0 0.0
2017-Nov-24 05:00N 32°05' W 081°04'0 0.0
2017-Nov-24 04:30N 32°05' W 081°04'0 0.0
2017-Nov-24 04:00N 32°05' W 081°04'1 2.9
2017-Nov-24 03:30N 32°05' W 081°06'0 0.7
2017-Nov-24 03:00N 32°05' W 081°06'0 0.0
2017-Nov-24 02:30N 32°05' W 081°06'0 0.0
2017-Nov-24 02:00N 32°05' W 081°06'0 0.0
2017-Nov-24 01:30N 32°05' W 081°06'0 0.0
2017-Nov-24 01:00N 32°05' W 081°06'2 4.3
2017-Nov-24 00:30N 32°07' W 081°08'1 1.5
2017-Nov-24 00:00N 32°07' W 081°08'1 2.3
2017-Nov-23 23:30N 32°07' W 081°07'3 6.7
2017-Nov-23 23:00N 32°05' W 081°04'0 0.0
2017-Nov-23 22:30N 32°05' W 081°04'0 0.0
2017-Nov-23 22:00N 32°05' W 081°04'0 0.0
2017-Nov-23 21:30N 32°05' W 081°04'0 0.0
2017-Nov-23 21:00N 32°05' W 081°04'0 0.0
2017-Nov-23 20:30N 32°05' W 081°04'0 0.0
2017-Nov-23 20:00N 32°05' W 081°04'0 0.0
2017-Nov-23 19:30N 32°05' W 081°04'0 0.0
2017-Nov-23 19:00N 32°05' W 081°04'0 0.0
2017-Nov-23 18:30N 32°05' W 081°04'0 0.0
2017-Nov-23 18:00N 32°05' W 081°04'0 0.0
2017-Nov-23 17:30N 32°05' W 081°04'0 0.0
2017-Nov-23 17:00N 32°05' W 081°04'0 0.0
2017-Nov-23 16:30N 32°05' W 081°04'0 0.0
2017-Nov-23 16:00N 32°05' W 081°04'0 0.0
2017-Nov-23 15:30N 32°05' W 081°04'0 0.0
2017-Nov-23 15:00N 32°05' W 081°04'0 0.0
2017-Nov-23 14:30N 32°05' W 081°04'0 0.0
2017-Nov-23 14:00N 32°05' W 081°04'0 0.0
2017-Nov-23 13:30N 32°05' W 081°04'0 0.0
2017-Nov-23 13:00N 32°05' W 081°04'0 0.0
2017-Nov-23 12:30N 32°05' W 081°04'0 0.1
2017-Nov-23 12:00N 32°05' W 081°04'4 7.1
2017-Nov-23 11:30N 32°07' W 081°07'2 3.4
2017-Nov-23 11:00N 32°08' W 081°09'0 0.2
2017-Nov-23 10:30N 32°08' W 081°08'1 2.3
2017-Nov-23 10:00N 32°07' W 081°08'2 4.7
2017-Nov-23 09:30N 32°05' W 081°06'2 3.7
2017-Nov-23 09:00N 32°05' W 081°04'0 0.0
2017-Nov-23 08:29N 32°05' W 081°04'0 0.0
2017-Nov-23 07:59N 32°05' W 081°04'0 0.0
2017-Nov-23 07:30N 32°05' W 081°04'0 0.0
2017-Nov-23 07:00N 32°05' W 081°04'0 0.0
2017-Nov-23 06:30N 32°05' W 081°04'0 0.0
2017-Nov-23 06:00N 32°05' W 081°04'0 0.0
2017-Nov-23 05:30N 32°05' W 081°04'0 0.0
2017-Nov-23 05:00N 32°05' W 081°04'0 0.0
2017-Nov-23 04:30N 32°05' W 081°04'0 0.0
2017-Nov-23 04:00N 32°05' W 081°04'0 0.0
2017-Nov-23 03:30N 32°05' W 081°04'0 0.0
2017-Nov-23 03:00N 32°05' W 081°04'0 0.0
2017-Nov-23 02:30N 32°05' W 081°04'0 0.0
2017-Nov-23 02:00N 32°05' W 081°04'1 1.3
2017-Nov-23 01:30N 32°05' W 081°05'4 7.1
2017-Nov-23 01:00N 32°07' W 081°08'1 1.9
2017-Nov-23 00:30N 32°08' W 081°08'0 0.9
2017-Nov-23 00:00N 32°08' W 081°09'0 0.0
2017-Nov-22 23:30N 32°08' W 081°09'0 0.7
2017-Nov-22 23:00N 32°08' W 081°08'0 0.3
2017-Nov-22 22:30N 32°08' W 081°08'0 0.0
2017-Nov-22 22:00N 32°08' W 081°08'0 0.1
2017-Nov-22 21:30N 32°08' W 081°08'0 0.2
2017-Nov-22 21:00N 32°08' W 081°08'2 3.9
2017-Nov-22 20:30N 32°06' W 081°07'2 4.8
2017-Nov-22 20:00N 32°05' W 081°05'3 6.2
2017-Nov-22 19:30N 32°06' W 081°01'  
2017-Nov-20 00:30N 32°08' W 081°09'1 1.7
2017-Nov-20 00:00N 32°07' W 081°08'3 5.3
2017-Nov-19 23:31N 32°05' W 081°06'3 5.9
2017-Nov-19 23:00N 32°05' W 081°03'3 6.1
2017-Nov-19 22:30N 32°05' W 080°59'1 2.2
2017-Nov-19 22:01N 32°06' W 080°60'4 7.7
2017-Nov-19 21:31N 32°05' W 081°04'0 0.3
2017-Nov-19 21:00N 32°05' W 081°04'0 0.0
2017-Nov-19 20:30N 32°05' W 081°04'0 0.0
2017-Nov-19 20:01N 32°05' W 081°04'0 0.0
2017-Nov-19 19:30N 32°05' W 081°04'0 0.0
2017-Nov-19 19:00N 32°05' W 081°04'0 0.0
2017-Nov-19 18:31N 32°05' W 081°04'0 0.0
2017-Nov-19 18:00N 32°05' W 081°04'0 0.0
2017-Nov-19 17:30N 32°05' W 081°04'0 0.0
2017-Nov-19 17:01N 32°05' W 081°04'3 6.4
2017-Nov-19 16:30N 32°06' W 081°07'1 2.5
2017-Nov-19 16:00N 32°07' W 081°08'0 0.2
2017-Nov-19 15:31N 32°08' W 081°08'3 5.2
2017-Nov-19 15:01N 32°05' W 081°06'0 0.0
2017-Nov-19 14:30N 32°05' W 081°06'0 0.0
2017-Nov-19 14:01N 32°05' W 081°06'0 0.7
2017-Nov-19 13:31N 32°06' W 081°06'2 4.8
2017-Nov-19 13:00N 32°08' W 081°08'0 0.0
2017-Nov-19 12:31N 32°08' W 081°08'3 6.1
2017-Nov-19 12:01N 32°05' W 081°06'0 0.9
2017-Nov-19 11:31N 32°06' W 081°06'1 2.1
2017-Nov-19 11:00N 32°06' W 081°07'3 6.2
2017-Nov-19 10:30N 32°05' W 081°04'0 0.0
2017-Nov-19 10:01N 32°05' W 081°04'0 0.0
2017-Nov-19 09:31N 32°05' W 081°04'0 0.0
2017-Nov-19 09:01N 32°05' W 081°04'0 0.0
2017-Nov-19 08:30N 32°05' W 081°04'0 0.0
2017-Nov-19 08:00N 32°05' W 081°04'0 0.0
2017-Nov-19 07:31N 32°05' W 081°04'0 0.0
2017-Nov-19 07:00N 32°05' W 081°04'0 0.0
2017-Nov-19 06:30N 32°05' W 081°04'0 0.0
2017-Nov-19 06:01N 32°05' W 081°04'0 0.0
2017-Nov-19 05:31N 32°05' W 081°04'0 0.0
2017-Nov-19 05:01N 32°05' W 081°04'0 0.0
2017-Nov-19 04:30N 32°05' W 081°04'0 0.0
2017-Nov-19 04:00N 32°05' W 081°04'0 0.0
2017-Nov-19 03:31N 32°05' W 081°04'0 0.0
2017-Nov-19 03:00N 32°05' W 081°04'0 0.0
2017-Nov-19 02:31N 32°05' W 081°04'4 7.9
2017-Nov-19 02:01N 32°07' W 081°08'1 1.4
2017-Nov-19 01:31N 32°08' W 081°08'1 1.6
2017-Nov-19 01:00N 32°07' W 081°08'2 4.5
2017-Nov-19 00:31N 32°05' W 081°06'3 6.1
2017-Nov-19 00:00N 32°05' W 081°02'5 9.3
2017-Nov-18 23:31N 32°07' W 081°07'1 2.3
2017-Nov-18 23:00N 32°08' W 081°08'0 0.0
2017-Nov-18 22:30N 32°08' W 081°08'0 0.0
2017-Nov-18 22:00N 32°08' W 081°08'0 0.8
2017-Nov-18 21:31N 32°07' W 081°08'0 0.1
2017-Nov-18 21:00N 32°07' W 081°08'1 2.2
2017-Nov-18 20:30N 32°06' W 081°07'1 1.7
2017-Nov-18 20:00N 32°07' W 081°08'4 7.4
2017-Nov-18 19:31N 32°05' W 081°05'1 1.2
2017-Nov-18 19:01N 32°05' W 081°04'0 0.0
2017-Nov-18 18:31N 32°05' W 081°04'0 0.0
2017-Nov-18 18:00N 32°05' W 081°04'0 0.0
2017-Nov-18 17:30N 32°05' W 081°04'0 0.0
2017-Nov-18 17:00N 32°05' W 081°04'0 0.0
2017-Nov-18 16:31N 32°05' W 081°04'0 0.2
2017-Nov-18 16:00N 32°05' W 081°04'3 5.1
2017-Nov-18 15:30N 32°06' W 081°07'2 4.4
2017-Nov-18 15:01N 32°08' W 081°08'3 6.2
2017-Nov-18 14:30N 32°05' W 081°06'2 4.5
2017-Nov-18 14:00N 32°05' W 081°03'3 5.9
2017-Nov-18 13:30N 32°06' W 081°06'2 4.8
2017-Nov-18 13:01N 32°08' W 081°08'0 0.9
2017-Nov-18 12:30N 32°08' W 081°09'3 6.6
2017-Nov-18 12:00N 32°05' W 081°06'3 5.6
2017-Nov-18 11:30N 32°08' W 081°08'0 0.1
2017-Nov-18 11:00N 32°08' W 081°08'0 0.6
2017-Nov-18 10:30N 32°08' W 081°08'1 1.9
2017-Nov-18 10:00N 32°07' W 081°08'2 3.7
2017-Nov-18 09:30N 32°06' W 081°06'0 0.0
2017-Nov-18 09:00N 32°06' W 081°06'2 3.5
2017-Nov-18 08:30N 32°07' W 081°08'0 1.0
2017-Nov-18 08:00N 32°07' W 081°08'0 0.0
2017-Nov-18 07:30N 32°07' W 081°08'0 0.5
2017-Nov-18 07:00N 32°08' W 081°08'0 0.8
2017-Nov-18 06:30N 32°07' W 081°08'1 1.0
2017-Nov-18 06:00N 32°08' W 081°08'1 1.9
2017-Nov-18 05:30N 32°07' W 081°08'2 3.6
2017-Nov-18 05:00N 32°05' W 081°06'0 0.0
2017-Nov-18 04:30N 32°05' W 081°06'0 0.0
2017-Nov-18 04:00N 32°05' W 081°06'0 0.0
2017-Nov-18 03:30N 32°05' W 081°06'0 0.1
2017-Nov-18 03:00N 32°06' W 081°06'1 2.9
2017-Nov-18 02:30N 32°07' W 081°07'2 3.8
2017-Nov-18 02:00N 32°05' W 081°06'3 6.5
2017-Nov-18 01:30N 32°08' W 081°08'1 1.9
2017-Nov-18 01:00N 32°07' W 081°08'510.1
2017-Nov-18 00:30N 32°05' W 081°02'2 4.6
2017-Nov-18 00:00N 32°05' W 080°59'0 0.0
2017-Nov-17 23:30N 32°05' W 080°59'1 1.7
2017-Nov-17 23:00N 32°04' W 080°59'0 0.1
2017-Nov-17 22:30N 32°05' W 080°59'3 5.9
2017-Nov-17 22:00N 32°05' W 081°02'2 3.0
2017-Nov-17 21:30N 32°05' W 081°04'0 0.0
2017-Nov-17 21:00N 32°05' W 081°04'0 0.0
2017-Nov-17 20:30N 32°05' W 081°04'0 0.0
2017-Nov-17 20:00N 32°05' W 081°04'0 0.0
2017-Nov-17 19:30N 32°05' W 081°04'0 0.0
2017-Nov-17 19:00N 32°05' W 081°04'2 4.1
2017-Nov-17 18:30N 32°05' W 081°06'3 5.5
2017-Nov-17 18:00N 32°08' W 081°08'0 0.7
2017-Nov-17 17:31N 32°08' W 081°08'1 2.8
2017-Nov-17 17:00N 32°07' W 081°07'2 3.8
2017-Nov-17 16:30N 32°05' W 081°06'3 5.3
2017-Nov-17 16:00N 32°07' W 081°08'1 2.4
2017-Nov-17 15:30N 32°06' W 081°07'3 6.1
2017-Nov-17 15:01N 32°05' W 081°04'0 0.4
2017-Nov-17 14:30N 32°05' W 081°04'0 0.0
2017-Nov-17 13:59N 32°05' W 081°04'0 0.0
2017-Nov-17 13:30N 32°05' W 081°04'0 0.0
2017-Nov-17 13:00N 32°05' W 081°04'0 0.0
2017-Nov-17 12:30N 32°05' W 081°04'0 0.0
2017-Nov-17 12:00N 32°05' W 081°04'0 0.0
2017-Nov-17 11:30N 32°05' W 081°04'0 0.0
2017-Nov-17 11:00N 32°05' W 081°04'0 0.0
2017-Nov-17 10:30N 32°05' W 081°04'0 0.0
2017-Nov-17 10:00N 32°05' W 081°04'0 0.0
2017-Nov-17 09:30N 32°05' W 081°04'0 0.0
2017-Nov-17 09:00N 32°05' W 081°04'0 0.0
2017-Nov-17 08:30N 32°05' W 081°04'0 0.0
2017-Nov-17 07:59N 32°05' W 081°04'0 0.0
2017-Nov-17 07:30N 32°05' W 081°04'2 3.1
2017-Nov-17 07:00N 32°05' W 081°06'4 7.9
2017-Nov-17 06:30N 32°08' W 081°09'0 0.6
2017-Nov-17 06:00N 32°08' W 081°08'2 3.7
2017-Nov-17 05:30N 32°06' W 081°07'2 4.5
2017-Nov-17 05:00N 32°05' W 081°05'2 4.3
2017-Nov-17 04:30N 32°05' W 081°02'3 5.9
2017-Nov-17 04:00N 32°05' W 080°59'2 4.0
2017-Nov-17 03:30N 32°06' W 081°01'3 5.3
2017-Nov-17 03:00N 32°05' W 081°04'1 1.1
2017-Nov-17 02:31N 32°05' W 081°04'5 8.9
2017-Nov-17 02:00N 32°08' W 081°08'0 0.5
2017-Nov-17 01:30N 32°08' W 081°09'2 4.6
2017-Nov-17 01:00N 32°06' W 081°07'0 0.1
2017-Nov-17 00:31N 32°06' W 081°07'1 2.7
2017-Nov-17 00:00N 32°05' W 081°06'4 7.1
2017-Nov-16 23:30N 32°08' W 081°08'0 0.4
2017-Nov-16 23:00N 32°08' W 081°09'0 0.4
2017-Nov-16 22:31N 32°08' W 081°08'2 4.3
2017-Nov-16 22:00N 32°06' W 081°07'3 5.6
2017-Nov-16 21:30N 32°05' W 081°04'4 7.2
2017-Nov-16 21:00N 32°06' W 081°00'2 3.6
2017-Nov-16 20:30N 32°05' W 080°59'0 0.0
2017-Nov-16 20:00N 32°05' W 080°59'4 6.9
2017-Nov-16 19:29N 32°05' W 081°03'1 1.4
2017-Nov-16 19:00N 32°05' W 081°04'0 0.0
2017-Nov-16 18:30N 32°05' W 081°04'0 0.0
2017-Nov-16 18:00N 32°05' W 081°04'0 0.0
2017-Nov-16 17:30N 32°05' W 081°04'0 0.0
2017-Nov-16 17:00N 32°05' W 081°04'0 0.0
2017-Nov-16 16:30N 32°05' W 081°04'0 0.0
2017-Nov-16 16:00N 32°05' W 081°04'0 0.0
2017-Nov-16 15:30N 32°05' W 081°04'0 0.0
2017-Nov-16 15:00N 32°05' W 081°04'0 0.0
2017-Nov-16 14:30N 32°05' W 081°04'0 0.0
2017-Nov-16 14:00N 32°05' W 081°04'0 0.0
2017-Nov-16 13:30N 32°05' W 081°04'0 0.0
2017-Nov-16 13:00N 32°05' W 081°04'0 0.0
2017-Nov-16 12:30N 32°05' W 081°04'0 0.0
2017-Nov-16 12:00N 32°05' W 081°04'0 0.0
2017-Nov-16 11:30N 32°05' W 081°04'4 7.5
2017-Nov-16 11:00N 32°07' W 081°08'1 2.6
2017-Nov-16 10:30N 32°08' W 081°08'1 2.9
2017-Nov-16 10:00N 32°07' W 081°07'1 1.8
2017-Nov-16 09:30N 32°07' W 081°08'0 0.0
2017-Nov-16 09:00N 32°07' W 081°08'1 1.9
2017-Nov-16 08:30N 32°08' W 081°09'1 1.5
2017-Nov-16 08:00N 32°08' W 081°08'3 5.2
2017-Nov-16 07:30N 32°05' W 081°06'0 0.0
2017-Nov-16 07:00N 32°05' W 081°06'0 0.0
2017-Nov-16 06:30N 32°05' W 081°06'0 0.0
2017-Nov-16 06:00N 32°05' W 081°06'0 0.4
2017-Nov-16 05:30N 32°06' W 081°06'0 0.0
2017-Nov-16 05:00N 32°06' W 081°06'2 4.0
2017-Nov-16 04:30N 32°05' W 081°04'0 0.8
2017-Nov-16 04:00N 32°05' W 081°04'0 0.0
2017-Nov-16 03:30N 32°05' W 081°04'0 0.0
2017-Nov-16 03:00N 32°05' W 081°04'0 0.0
2017-Nov-16 02:30N 32°05' W 081°04'0 0.0
2017-Nov-16 02:00N 32°05' W 081°04'0 0.0
2017-Nov-16 01:30N 32°05' W 081°04'0 0.0
2017-Nov-16 01:00N 32°05' W 081°04'0 0.0
2017-Nov-16 00:30N 32°05' W 081°04'3 6.2
2017-Nov-16 00:00N 32°06' W 081°07'1 2.9
2017-Nov-15 23:30N 32°07' W 081°08'0 0.3
2017-Nov-15 23:00N 32°08' W 081°08'0 0.6
2017-Nov-15 22:30N 32°08' W 081°08'0 0.1
2017-Nov-15 22:00N 32°08' W 081°08'0 0.9
2017-Nov-15 21:30N 32°07' W 081°08'3 5.4
2017-Nov-15 21:00N 32°05' W 081°06'3 5.2
2017-Nov-15 20:30N 32°05' W 081°03'3 6.0
2017-Nov-15 20:00N 32°06' W 081°06'2 4.0
2017-Nov-15 19:30N 32°07' W 081°08'0 0.0
2017-Nov-15 19:00N 32°07' W 081°08'0 0.0
2017-Nov-15 18:30N 32°07' W 081°08'0 0.0
2017-Nov-15 18:00N 32°07' W 081°08'0 0.0
2017-Nov-15 17:30N 32°07' W 081°08'1 2.4
2017-Nov-15 17:00N 32°08' W 081°09'0 0.3
2017-Nov-15 16:30N 32°08' W 081°08'1 1.3
2017-Nov-15 16:00N 32°08' W 081°08'2 4.7
2017-Nov-15 15:30N 32°06' W 081°06'0 0.5
2017-Nov-15 15:00N 32°05' W 081°06'0 0.0
2017-Nov-15 14:30N 32°05' W 081°06'0 0.0
2017-Nov-15 14:00N 32°05' W 081°06'0 0.0
2017-Nov-15 13:30N 32°05' W 081°06'0 0.0
2017-Nov-15 13:00N 32°05' W 081°06'0 0.0
2017-Nov-15 12:30N 32°05' W 081°06'0 0.0
2017-Nov-15 12:00N 32°05' W 081°06'0 0.0
2017-Nov-15 11:30N 32°05' W 081°06'0 0.0
2017-Nov-15 11:00N 32°05' W 081°06'0 0.0
2017-Nov-15 10:30N 32°05' W 081°06'0 0.0
2017-Nov-15 10:00N 32°05' W 081°06'0 0.0
2017-Nov-15 09:30N 32°05' W 081°06'0 0.0
2017-Nov-15 09:00N 32°05' W 081°06'0 0.0
2017-Nov-15 08:30N 32°05' W 081°06'0 0.0
2017-Nov-15 08:00N 32°05' W 081°06'3 6.0
2017-Nov-15 07:31N 32°08' W 081°08'1 2.0
2017-Nov-15 07:00N 32°07' W 081°08'1 2.8
2017-Nov-15 06:30N 32°08' W 081°09'0 0.3
2017-Nov-15 06:00N 32°08' W 081°08'1 1.8
2017-Nov-15 05:30N 32°07' W 081°08'0 0.4
2017-Nov-15 05:00N 32°07' W 081°08'0 0.0
2017-Nov-15 04:30N 32°07' W 081°08'0 0.0
2017-Nov-15 04:00N 32°07' W 081°08'0 0.0
2017-Nov-15 03:30N 32°07' W 081°08'0 0.0
2017-Nov-15 03:00N 32°07' W 081°08'0 0.0
2017-Nov-15 02:30N 32°07' W 081°08'0 0.9
2017-Nov-15 02:00N 32°07' W 081°08'1 2.0
2017-Nov-15 01:30N 32°07' W 081°07'3 6.7
2017-Nov-15 01:00N 32°05' W 081°04'0 0.6
2017-Nov-15 00:30N 32°05' W 081°04'0 0.0
2017-Nov-15 00:00N 32°05' W 081°04'0 0.0
2017-Nov-14 23:30N 32°05' W 081°04'0 0.0
2017-Nov-14 23:00N 32°05' W 081°04'0 0.0
2017-Nov-14 22:30N 32°05' W 081°04'0 0.0
2017-Nov-14 22:00N 32°05' W 081°04'0 0.0
2017-Nov-14 21:30N 32°05' W 081°04'0 0.0
2017-Nov-14 21:00N 32°05' W 081°04'  

Dump ship's entire track history